This is the latest recevied weather packets stored in our database for station/object kj4yre. If no packets are shown the sender has not sent any weather packets the latest 10 day(s).
| Time | Temp. | Humidity | Pressure | Rain* | Wind** | Luminosity | Snow |
|---|---|---|---|---|---|---|---|
| 1778153105 | 13.89° C | 100% | 1011.5 hPa | 0.76 mm | - | - | - |
| 1778152505 | 14.44° C | 100% | 1011.2 hPa | 0.51 mm | - | - | - |
| 1778147405 | 15° C | 100% | 1010.4 hPa | 0 mm | - | - | - |
| 1778146505 | 15.56° C | 100% | 1010.5 hPa | 0 mm | - | - | - |
| 1778145906 | 16.11° C | 100% | 1010.2 hPa | 0 mm | - | - | - |
| 1778144106 | 18.33° C | 100% | 1009.3 hPa | 0 mm | - | - | - |
| 1778139305 | 19.44° C | 97% | 1009.4 hPa | 0 mm | - | - | - |
| 1778138405 | 19.44° C | 96% | 1009.2 hPa | 0 mm | - | - | - |
| 1778137507 | 19.44° C | 97% | 1009.1 hPa | 0 mm | - | - | - |
| 1778135105 | 20° C | 96% | 1008.5 hPa | 0 mm | - | - | - |
| 1778134808 | 20° C | 95% | 1008.8 hPa | 0 mm | - | - | - |
| 1778132705 | 20° C | 94% | 1010 hPa | 0 mm | - | - | - |
| 1778129105 | 21.11° C | 86% | 1011 hPa | 0 mm | - | - | - |
| 1778123705 | 20° C | 89% | 1010.6 hPa | 0 mm | - | - | - |
| 1778123408 | 20° C | 89% | 1010.4 hPa | 0 mm | - | - | - |
| 1778121607 | 20.56° C | 88% | 1010.8 hPa | 0 mm | - | - | - |
| 1778120705 | 20° C | 89% | 1011 hPa | 0 mm | - | - | - |
| 1778118305 | 19.44° C | 91% | 1010.9 hPa | 0 mm | - | - | - |
| 1778117105 | 19.44° C | 90% | 1011.1 hPa | 0 mm | - | - | - |
| 1778115605 | 20.56° C | 86% | 1011.2 hPa | 0 mm | - | - | - |
| 1778114406 | 20.56° C | 84% | 1011.3 hPa | 0 mm | - | - | - |
| 1778112605 | 21.67° C | 80% | 1011.1 hPa | 0 mm | - | - | - |
| 1778111705 | 21.67° C | 79% | 1010.8 hPa | 0 mm | - | - | - |
| 1778110505 | 22.22° C | 78% | 1011 hPa | 0 mm | - | - | - |
| 1778109904 | 22.22° C | 78% | 1010.9 hPa | 0 mm | - | - | - |
* Rain latest hour (hover to see other rain measurements)
** Current wind speed in m/s (hover to see current wind gust speed)